RBA weather

Rabat-Salé Airport
Rabat, Rabat-Salé Province, Morocco

Public forecast

Using degrees Celsius for public forecast. Weather courtesy of forecast.io.

Current aviation weather report (METAR) for Rabat-Salé Airport

Retrieved 2019/11/15 09:30 UTC (0 seconds ago):

GMME 150930Z 20006KT 170V230 5000 SCT011TCU SCT016 BKN026 13/10 Q1013 NOSIG

Aviation forecast (TAF) for Rabat-Salé Airport

Retrieved 2019/11/15 06:18 UTC (3 hours ago):

TAF TAF GMME 150500Z 1506/1612 28008KT 5000 SCT015 BKN020 TEMPO 1509/1520 32018G28KT 3000 SHRA BKN015 SCT020TCU